BGGHCYFB

Guest
Details From BGGH - Nuuk
To CYFB - Iqaluit
Flight Number -
Tags generated
Created
Modified
Stats Distance 454 nm / 840 km
Max Altitude 34,000 ft / 10,363 m
Waypoints 6
Social Downloads 0
Likes 0
Share VATSIM

Download

Looking for another format? Having issues loading an existing format? Contact us
Advertisement - Login to hide

Notes

Basic altitude profile: - Ascent Rate: 2500ft/min - Ascent Speed: 250kts - Cruise Altitude: 35000ft - Cruise Speed: 420kts - Descent Rate: 1500ft/min - Descent Speed: 250kts Options: - Use NATs: yes - Use PACOTS: yes - Use low airways: yes - Use high airways: yes

Route

BGGH KU 6400N05500W 6400N06000W RUDGA CYFB

ID Type Via Altitude Latitude Longitude Leg Dist Tot Dist Heading (true) Name
O BGGH APT - 0 ft / 0 m 64.19302˚ -51.67645˚ - 0 nm - Nuuk
KU NDB - 4,100 ft / 1,250 m 64.07000˚ -52.01306˚ 11 nm 11 nm 230° / 230° KOOK ISLANDS NDB
6400N05500W LATLON - 32,100 ft / 9,784 m 64.00000˚ -55.00000˚ 78 nm 90 nm 268° / 266° -
6400N06000W LATLON - 34,000 ft / 10,363 m 64.00000˚ -60.00000˚ 131 nm 221 nm 272° / 268° -
RUDGA FIX - 20,300 ft / 6,187 m 64.33333˚ -65.00000˚ 132 nm 354 nm 281° / 276° -
O CYFB APT - 0 ft / 0 m 63.75657˚ -68.55606˚ 99 nm 453 nm 251° / 248° Iqaluit

Altitude Profile

Advertisement - Login to hide

Weather


0- 5 10 15 20 25 30 35+ Temperature / ° C

Clouds and Precipitation
Forecast for 2017-12-12 18:00 UTC. Updated an hour ago

Ground ~20,000 ft ~40,000 ft Winds

BGGH

Details ICAO BGGH (GOH)
Name Nuuk
Region Greenland
Timezone America/Godthab (UTC-3.0)
Stats Elevation 283 ft / 86 m (AMSL)
Location 64.193021° -51.676454°
Runways 1
Magnetic Variation 27.021° W

METAR

BGGH 121550Z 30013KT 1500 SN DRSN SCT003 BKN007 OVC014 M03/M04 Q0985

Decode

TAF

Not found

Departure Runways

ID Width Length Bearing (true) Bearing (mag) Surface Threshold Offset Overrun Length
05 98 ft / 30 m 3,113 ft / 949 m 18.44° 45.46° Asphalt 0 ft / 0 m 0 ft / 0 m
23 98 ft / 30 m 3,113 ft / 949 m 198.44° 225.46° Asphalt 0 ft / 0 m 0 ft / 0 m

CYFB

Details ICAO CYFB (YFB)
Name Iqaluit
Region Canada
Timezone America/Iqaluit (UTC-5.0)
Stats Elevation 110 ft / 34 m (AMSL)
Location 63.756565° -68.556058°
Runways 1
Magnetic Variation 27.545° W

METAR

CYFB 121600Z 33013KT 6SM -SN DRSN OVC056 M15/M18 A2956 RMK SN2SC6 SLP014

Decode

TAF

TAF CYFB 121138Z 1212/1312 31008KT P6SM OVC050 TEMPO 1212/1218 VRB03KT P6SM -SN BKN020 OVC050 FM121800 VRB03KT P6SM BKN050 RMK NXT FCST BY 121800Z

Decode

Destination Runways

ID Width Length Bearing (true) Bearing (mag) Surface Threshold Offset Overrun Length
17 200 ft / 61 m 8,605 ft / 2,623 m 135.58° 163.12° Asphalt 0 ft / 0 m 210 ft / 64 m
35 200 ft / 61 m 8,605 ft / 2,623 m 315.62° 343.16° Asphalt 0 ft / 0 m 243 ft / 74 m

Popular Alternatives